Platzwetter / Webcam

  • Aktuelles Bild
  • Verlauf
  • Verlauf
  • Verlauf
  • Verlauf
  • Verlauf
  • Verlauf
  • Verlauf
  • Verlauf
  • Verlauf
  • Verlauf
  • Verlauf
  • Verlauf
  • Verlauf
  • Verlauf
  • Verlauf
  • Verlauf
  • Verlauf

Flugwetter Linz

[Quelle: ADDS]
METAR
LOWL 250950Z 24004KT 210V300 9999 FEW027 FEW040CB SCT140 25/20 Q1018 NOSIG =
TAF
AMD LOWL 250519Z 2506/2606 29005KT 9999 FEW040 TX28/2514Z TN19/2606Z TEMPO 2506/2521 FEW050CB BKN120 TEMPO 2514/2518 30015G25KT 3000 TSRA BKN030 SCT050CB PROB30 TEMPO 2600/2606 28012KT 4000 SHRA BKN025 =

Flugwetter Salzburg

[Quelle: ADDS]
METAR
LOWS 250950Z 35006KT 9999 FEW028 SCT040 FEW045CB BKN120 23/16 Q1019 NOSIG =
TAF
LOWS 250515Z 2506/2606 18005KT 9999 FEW040 BKN120 TX23/2513Z TN18/2606Z TEMPO 2506/2511 SHRA FEW040CB BKN050 PROB30 TEMPO 2507/2509 32012G22KT TSRA FEW050CB BKN050 BECMG 2507/2509 30005KT PROB40 TEMPO 2514/2520 34012G22KT 4000 TSRA FEW040CB BKN060 BECMG 2518/2520 15005KT PROB30 TEMPO 2520/2602 SHRA FEW040TCU BKN050 =

Fliegen lernen

Die Fliegerschule der WMW...

Termine & Events

Alle Termine anzeigen...

Aktuelles & News

Ju 52 Rundflüge

Ju52 Rundflüge
Termine für 2017 in Kürze...

+++ Aktuelle Spritpreise (11.05.2016): | Jet A-1 € 1,292 | Super Plus 98 ETBE € 1,370 | Avgas 100LL € 1,944 | +++